createdAt,value
2022-12-02T00:02:21.974Z,91.61
2022-12-02T00:04:57.207Z,91.84
2022-12-02T00:07:26.021Z,91.16
2022-12-02T00:09:54.410Z,90.60
2022-12-02T00:12:29.261Z,89.78
2022-12-02T00:15:01.062Z,90.09
2022-12-02T00:17:29.596Z,88.67
2022-12-02T00:19:57.945Z,87.23
2022-12-02T00:22:26.274Z,86.32
2022-12-02T00:24:54.765Z,85.84
2022-12-02T00:27:23.216Z,85.52
2022-12-02T00:29:51.538Z,85.49
2022-12-02T00:32:19.852Z,85.72
2022-12-02T00:34:48.446Z,85.77
2022-12-02T00:37:16.960Z,86.21
2022-12-02T00:39:45.295Z,85.96
2022-12-02T00:42:13.596Z,86.20
2022-12-02T00:45:00.184Z,86.21
2022-12-02T00:47:28.516Z,85.00
2022-12-02T00:49:56.841Z,85.11
2022-12-02T00:52:25.154Z,85.14
2022-12-02T00:54:53.518Z,84.71
2022-12-02T00:57:21.943Z,84.95
2022-12-02T00:59:50.319Z,84.20
2022-12-02T01:02:18.650Z,83.54
2022-12-02T01:04:47.077Z,83.55
2022-12-02T01:07:16.093Z,83.40
2022-12-02T01:09:44.432Z,83.43
2022-12-02T01:12:13.135Z,83.45
2022-12-02T01:14:41.573Z,83.24
2022-12-02T01:17:09.976Z,82.40
2022-12-02T01:19:40.880Z,82.55
2022-12-02T01:22:09.818Z,82.96
2022-12-02T01:24:38.234Z,81.22
2022-12-02T01:27:09.899Z,81.58
2022-12-02T01:29:38.606Z,78.93
2022-12-02T01:32:13.856Z,80.26
2022-12-02T01:34:43.324Z,78.58
2022-12-02T01:37:11.729Z,78.87
2022-12-02T01:39:40.162Z,78.84
2022-12-02T01:42:09.267Z,77.91
2022-12-02T01:44:41.832Z,78.41
2022-12-02T01:47:10.302Z,78.15
2022-12-02T01:49:59.655Z,78.03
2022-12-02T01:52:29.458Z,78.75
2022-12-02T01:54:57.814Z,77.28
2022-12-02T01:57:30.225Z,77.02
2022-12-02T01:59:58.931Z,77.33
2022-12-02T02:02:27.297Z,77.75
2022-12-02T02:05:04.892Z,77.41
2022-12-02T02:07:33.567Z,77.65
2022-12-02T02:10:02.020Z,76.55
2022-12-02T02:12:31.634Z,77.56
2022-12-02T02:15:00.257Z,76.82
2022-12-02T02:17:30.142Z,76.96
2022-12-02T02:19:58.502Z,77.00
2022-12-02T02:22:40.462Z,76.36
2022-12-02T02:25:19.878Z,76.54
2022-12-02T02:28:00.728Z,77.07
2022-12-02T02:30:32.647Z,76.05
2022-12-02T02:33:04.033Z,75.05
2022-12-02T02:35:35.678Z,76.15
2022-12-02T02:38:06.680Z,75.01
2022-12-02T02:40:35.469Z,74.55
2022-12-02T02:43:05.178Z,74.08
2022-12-02T02:45:36.995Z,74.54
2022-12-02T02:48:07.981Z,74.95
2022-12-02T02:50:38.224Z,73.73
2022-12-02T02:53:07.737Z,74.07
2022-12-02T02:55:36.621Z,73.32
2022-12-02T02:58:14.907Z,73.48
2022-12-02T03:00:50.851Z,74.10
2022-12-02T03:03:22.943Z,74.18
2022-12-02T03:05:54.544Z,73.93
2022-12-02T03:08:25.053Z,72.71
2022-12-02T03:10:58.667Z,72.87
2022-12-02T03:13:28.121Z,72.15
2022-12-02T03:15:57.205Z,69.66
2022-12-02T03:18:26.149Z,72.15
2022-12-02T03:20:54.953Z,70.96
2022-12-02T03:23:23.306Z,70.56
2022-12-02T03:25:51.850Z,70.82
2022-12-02T03:28:20.586Z,69.44
2022-12-02T03:30:49.094Z,70.29
2022-12-02T03:33:17.554Z,69.63
2022-12-02T03:35:47.003Z,70.04
2022-12-02T03:38:15.403Z,69.54
2022-12-02T03:40:43.855Z,68.60
2022-12-02T03:43:12.209Z,68.57
2022-12-02T03:45:44.044Z,65.40
2022-12-02T03:48:13.985Z,69.50
2022-12-02T03:50:43.100Z,68.41
2022-12-02T03:53:11.471Z,68.59
2022-12-02T03:55:39.887Z,68.70
2022-12-02T03:58:09.680Z,67.85
2022-12-02T04:00:39.194Z,67.83
2022-12-02T04:03:07.938Z,67.86
2022-12-02T04:05:36.361Z,67.63
2022-12-02T04:08:05.193Z,66.41
2022-12-02T04:10:33.641Z,65.25
2022-12-02T04:13:02.065Z,67.29
2022-12-02T04:15:30.982Z,67.52
2022-12-02T04:17:59.299Z,68.17
2022-12-02T04:20:27.634Z,64.88
2022-12-02T04:22:56.000Z,65.47
2022-12-02T04:25:24.352Z,66.23
2022-12-02T04:27:52.697Z,64.83
2022-12-02T04:30:21.089Z,65.31
2022-12-02T04:32:49.423Z,65.28
2022-12-02T04:35:17.868Z,66.80
2022-12-02T04:37:46.228Z,65.77
2022-12-02T04:40:17.154Z,64.26
2022-12-02T04:42:45.487Z,65.80
2022-12-02T04:45:14.184Z,64.85
2022-12-02T04:47:43.858Z,65.36
2022-12-02T04:50:12.954Z,64.72
2022-12-02T04:52:41.325Z,62.97
2022-12-02T04:55:10.187Z,64.69
2022-12-02T04:57:38.603Z,62.51
2022-12-02T05:00:09.095Z,63.14
2022-12-02T05:02:37.528Z,63.26
2022-12-02T05:05:06.473Z,63.26
2022-12-02T05:07:34.886Z,62.57
2022-12-02T05:10:03.712Z,63.23
2022-12-02T05:12:32.143Z,61.50
2022-12-02T05:15:03.956Z,62.05
2022-12-02T05:17:32.302Z,61.43
2022-12-02T05:20:00.615Z,63.92
2022-12-02T05:22:29.198Z,62.86
2022-12-02T05:24:57.553Z,62.50
2022-12-02T05:27:27.844Z,61.48
2022-12-02T05:29:59.277Z,62.55
2022-12-02T05:32:27.623Z,61.92
2022-12-02T05:34:55.940Z,63.15
2022-12-02T05:37:24.335Z,59.15
2022-12-02T05:39:53.524Z,60.66
2022-12-02T05:42:21.939Z,59.82
2022-12-02T05:44:50.272Z,62.58
2022-12-02T05:47:20.361Z,62.32
2022-12-02T05:49:48.729Z,61.60
2022-12-02T05:52:29.150Z,61.18
2022-12-02T05:54:59.969Z,60.92
2022-12-02T05:57:31.651Z,61.51
2022-12-02T06:00:24.182Z,61.77
2022-12-02T06:02:55.853Z,61.14
2022-12-02T06:05:30.683Z,59.39
2022-12-02T06:08:02.593Z,61.24
2022-12-02T06:10:33.432Z,63.14
2022-12-02T06:13:08.603Z,62.04
2022-12-02T06:15:39.784Z,60.73
2022-12-02T06:18:16.701Z,60.53
2022-12-02T06:20:47.837Z,60.88
2022-12-02T06:23:19.369Z,61.24
2022-12-02T06:25:49.312Z,60.16
2022-12-02T06:28:23.773Z,59.57
2022-12-02T06:30:52.268Z,60.92
2022-12-02T06:33:30.264Z,61.05
2022-12-02T06:36:01.559Z,58.24
2022-12-02T06:38:40.702Z,58.90
2022-12-02T06:41:27.543Z,59.05
2022-12-02T06:44:20.045Z,58.43
2022-12-02T06:46:48.792Z,58.36
2022-12-02T06:49:24.434Z,62.44
2022-12-02T06:52:05.967Z,59.07
2022-12-02T06:54:35.758Z,61.22
2022-12-02T06:57:04.414Z,58.96
2022-12-02T06:59:32.968Z,58.59
2022-12-02T07:02:08.241Z,60.02
2022-12-02T07:04:49.359Z,59.33
2022-12-02T07:07:23.876Z,58.42
2022-12-02T07:10:01.841Z,59.24
2022-12-02T07:12:38.260Z,59.85
2022-12-02T07:15:34.468Z,59.42
2022-12-02T07:18:14.274Z,60.12
2022-12-02T07:20:46.884Z,60.41
2022-12-02T07:23:23.567Z,59.15
2022-12-02T07:25:59.655Z,59.14
2022-12-02T07:28:39.335Z,59.62
2022-12-02T07:31:29.144Z,59.15
2022-12-02T07:33:57.690Z,58.18
2022-12-02T07:36:26.164Z,57.07
2022-12-02T07:39:09.694Z,60.01
2022-12-02T07:41:38.173Z,59.40
2022-12-02T07:44:07.361Z,58.44
2022-12-02T07:46:35.764Z,57.40
2022-12-02T07:49:04.157Z,59.69
2022-12-02T07:51:32.519Z,57.63
2022-12-02T07:54:00.875Z,58.44
2022-12-02T07:56:29.248Z,58.63
2022-12-02T07:59:13.510Z,58.64
2022-12-02T08:01:42.547Z,61.21
2022-12-02T08:04:10.981Z,59.39
2022-12-02T08:06:40.397Z,59.39
2022-12-02T08:09:10.637Z,59.67
2022-12-02T08:11:39.166Z,58.78
2022-12-02T08:14:07.766Z,58.05
2022-12-02T08:16:36.141Z,58.41
2022-12-02T08:19:05.184Z,59.89
2022-12-02T08:21:33.590Z,61.04
2022-12-02T08:24:02.312Z,60.54
2022-12-02T08:26:31.036Z,60.70
2022-12-02T08:28:59.434Z,60.16
2022-12-02T08:31:29.035Z,60.94
2022-12-02T08:33:59.221Z,60.15
2022-12-02T08:36:30.809Z,60.92
2022-12-02T08:38:59.223Z,61.15
2022-12-02T08:41:30.354Z,60.80
2022-12-02T08:44:00.361Z,60.62
2022-12-02T08:46:31.642Z,58.79
2022-12-02T08:49:01.417Z,59.76
2022-12-02T08:51:37.910Z,61.02
2022-12-02T08:54:06.309Z,60.20
2022-12-02T08:56:34.984Z,61.05
2022-12-02T08:59:04.337Z,60.91
2022-12-02T09:01:32.741Z,60.70
2022-12-02T09:04:01.289Z,60.97
2022-12-02T09:06:35.700Z,60.51
2022-12-02T09:09:05.924Z,61.88
2022-12-02T09:11:36.072Z,61.04
2022-12-02T09:14:04.466Z,60.53
2022-12-02T09:16:32.772Z,61.20
2022-12-02T09:19:01.156Z,61.40
2022-12-02T09:21:29.527Z,61.59
2022-12-02T09:23:57.874Z,62.00
2022-12-02T09:26:26.408Z,62.39
2022-12-02T09:28:54.730Z,62.42
2022-12-02T09:31:23.219Z,62.64
2022-12-02T09:33:51.666Z,62.50
2022-12-02T09:36:20.256Z,62.35
2022-12-02T09:38:48.696Z,63.20
2022-12-02T09:41:19.121Z,63.12
2022-12-02T09:43:48.133Z,63.40
2022-12-02T09:46:24.296Z,63.88
2022-12-02T09:48:53.731Z,63.13
2022-12-02T09:51:22.523Z,63.60
2022-12-02T09:53:51.544Z,63.88
2022-12-02T09:56:22.717Z,63.54
2022-12-02T09:58:55.591Z,63.82
2022-12-02T10:01:25.985Z,64.28
2022-12-02T10:03:54.915Z,64.03
2022-12-02T10:06:29.154Z,64.64
2022-12-02T10:08:59.414Z,64.70
2022-12-02T10:11:33.651Z,64.43
2022-12-02T10:14:07.933Z,64.80
2022-12-02T10:16:36.694Z,64.97
2022-12-02T10:19:07.070Z,65.06
2022-12-02T10:21:35.572Z,64.95
2022-12-02T10:24:13.533Z,65.19
2022-12-02T10:26:52.340Z,65.73
2022-12-02T10:29:29.663Z,65.71
2022-12-02T10:32:00.689Z,66.10
2022-12-02T10:34:31.006Z,66.10
2022-12-02T10:37:17.980Z,66.48
2022-12-02T10:39:46.506Z,66.50
2022-12-02T10:42:22.364Z,66.28
2022-12-02T10:45:17.942Z,66.09
2022-12-02T10:47:47.419Z,66.09
2022-12-02T10:50:21.036Z,66.78
2022-12-02T10:53:13.361Z,66.19
2022-12-02T10:55:42.415Z,66.41
2022-12-02T10:58:15.368Z,66.57
2022-12-02T11:00:44.539Z,67.42
2022-12-02T11:03:13.186Z,66.60
2022-12-02T11:05:42.839Z,67.07
2022-12-02T11:08:28.881Z,68.08
2022-12-02T11:11:09.570Z,67.78
2022-12-02T11:14:06.814Z,68.00
2022-12-02T11:16:35.148Z,67.99
2022-12-02T11:19:35.912Z,67.58
2022-12-02T11:22:05.124Z,67.96
2022-12-02T11:24:33.419Z,68.42
2022-12-02T11:27:01.864Z,69.19
2022-12-02T11:29:43.751Z,68.91
2022-12-02T11:32:20.981Z,69.72
2022-12-02T11:35:16.876Z,70.16
2022-12-02T11:37:48.247Z,69.88
2022-12-02T11:40:19.674Z,70.07
2022-12-02T11:42:48.071Z,69.65
2022-12-02T11:45:19.382Z,69.32
2022-12-02T11:47:59.601Z,68.60
2022-12-02T11:50:28.396Z,70.08
2022-12-02T11:53:02.130Z,69.58
2022-12-02T11:55:38.259Z,69.79
2022-12-02T11:58:20.202Z,70.16
2022-12-02T12:01:09.125Z,71.16
2022-12-02T12:03:46.377Z,70.86
2022-12-02T12:06:25.083Z,71.09
2022-12-02T12:08:56.481Z,72.40
2022-12-02T12:11:38.402Z,72.72
2022-12-02T12:14:15.033Z,73.19
2022-12-02T12:16:47.460Z,73.89
2022-12-02T12:19:21.057Z,73.38
2022-12-02T12:21:53.392Z,72.52
2022-12-02T12:24:22.333Z,73.15
2022-12-02T12:26:52.041Z,73.59
2022-12-02T12:29:22.999Z,74.50
2022-12-02T12:31:51.804Z,75.25
2022-12-02T12:34:20.147Z,75.39
2022-12-02T12:36:49.221Z,75.65
2022-12-02T12:39:18.133Z,75.67
2022-12-02T12:42:02.524Z,74.77
2022-12-02T12:44:32.982Z,74.21
2022-12-02T12:47:04.605Z,74.06
2022-12-02T12:49:34.639Z,74.85
2022-12-02T12:52:03.932Z,75.06
2022-12-02T12:54:32.365Z,74.98
2022-12-02T12:57:00.690Z,74.74
2022-12-02T12:59:29.304Z,75.58
2022-12-02T13:01:57.680Z,75.43
2022-12-02T13:04:26.261Z,74.24
2022-12-02T13:06:54.755Z,73.51
2022-12-02T13:09:23.081Z,73.81
2022-12-02T13:11:51.664Z,74.63
2022-12-02T13:14:20.018Z,75.00
2022-12-02T13:16:48.464Z,75.63
2022-12-02T13:19:16.826Z,76.16
2022-12-02T13:21:45.272Z,77.01
2022-12-02T13:24:16.258Z,77.65
2022-12-02T13:26:44.646Z,77.55
2022-12-02T13:29:13.055Z,77.13
2022-12-02T13:31:41.517Z,77.11
2022-12-02T13:34:09.891Z,77.20
2022-12-02T13:36:38.262Z,77.31
2022-12-02T13:39:06.894Z,76.67
2022-12-02T13:41:35.422Z,77.02
2022-12-02T13:44:03.866Z,76.74
2022-12-02T13:46:32.696Z,77.15
2022-12-02T13:49:01.152Z,76.25
2022-12-02T13:51:29.486Z,75.46
2022-12-02T13:53:59.598Z,75.31
2022-12-02T13:56:29.052Z,74.81
2022-12-02T13:58:57.446Z,74.55
2022-12-02T14:01:25.934Z,74.70
2022-12-02T14:03:54.425Z,74.14
2022-12-02T14:06:22.837Z,74.02
2022-12-02T14:08:51.233Z,73.41
2022-12-02T14:11:21.770Z,75.75
2022-12-02T14:13:51.119Z,74.67
2022-12-02T14:16:19.675Z,75.50
2022-12-02T14:18:52.395Z,75.58
2022-12-02T14:21:23.910Z,75.94
2022-12-02T14:23:52.245Z,76.40
2022-12-02T14:26:20.654Z,76.43
2022-12-02T14:28:49.365Z,76.60
2022-12-02T14:31:25.350Z,77.00
2022-12-02T14:34:11.829Z,76.88
2022-12-02T14:36:42.599Z,76.74
2022-12-02T14:39:11.224Z,76.42
2022-12-02T14:41:39.757Z,76.86
2022-12-02T14:44:08.373Z,76.74
2022-12-02T14:46:36.897Z,76.83
2022-12-02T14:49:38.287Z,77.24
2022-12-02T14:51:53.769Z,77.37
2022-12-02T14:54:22.087Z,77.57
2022-12-02T14:56:50.388Z,77.61
2022-12-02T14:59:18.722Z,78.59
2022-12-02T15:01:47.234Z,77.80
2022-12-02T15:04:15.589Z,77.94
2022-12-02T15:06:45.554Z,77.33
2022-12-02T15:09:14.152Z,77.53
2022-12-02T15:11:42.548Z,78.31
2022-12-02T15:14:10.885Z,78.64
2022-12-02T15:16:39.386Z,80.20
2022-12-02T15:19:07.753Z,80.21
2022-12-02T15:21:36.137Z,80.32
2022-12-02T15:24:04.541Z,80.29
2022-12-02T15:26:32.876Z,80.78
2022-12-02T15:29:01.271Z,80.95
2022-12-02T15:31:29.719Z,80.41
2022-12-02T15:33:58.067Z,80.45
2022-12-02T15:36:26.504Z,80.44
2022-12-02T15:38:54.908Z,80.70
2022-12-02T15:41:23.229Z,79.58
2022-12-02T15:43:53.812Z,79.01
2022-12-02T15:46:24.730Z,79.90
2022-12-02T15:48:53.239Z,79.93
2022-12-02T15:51:22.107Z,79.74
2022-12-02T15:53:50.497Z,80.73
2022-12-02T15:56:20.332Z,80.30
2022-12-02T15:58:50.617Z,79.47
2022-12-02T16:01:19.182Z,79.25
2022-12-02T16:03:47.802Z,78.77
2022-12-02T16:06:16.115Z,79.37
2022-12-02T16:08:44.670Z,78.03
2022-12-02T16:11:13.565Z,78.69
2022-12-02T16:13:41.907Z,79.60
2022-12-02T16:16:10.656Z,78.98
2022-12-02T16:18:39.008Z,79.15
2022-12-02T16:21:07.609Z,78.68
2022-12-02T16:23:35.959Z,78.77
2022-12-02T16:26:04.317Z,79.07
2022-12-02T16:28:32.819Z,79.28
2022-12-02T16:31:01.194Z,78.77
2022-12-02T16:33:29.551Z,78.68
2022-12-02T16:35:57.905Z,78.15
2022-12-02T16:38:26.249Z,78.93
2022-12-02T16:40:55.026Z,79.03
2022-12-02T16:43:23.336Z,79.57
2022-12-02T16:45:51.943Z,78.21
2022-12-02T16:48:20.313Z,77.84
2022-12-02T16:50:52.700Z,78.57
2022-12-02T16:53:23.880Z,78.65
2022-12-02T16:55:52.347Z,77.41
2022-12-02T16:58:20.709Z,77.09
2022-12-02T17:00:49.157Z,77.18
2022-12-02T17:03:17.504Z,76.90
2022-12-02T17:05:45.917Z,77.13
2022-12-02T17:08:14.355Z,77.15
2022-12-02T17:10:42.827Z,76.89
2022-12-02T17:13:11.149Z,78.15
2022-12-02T17:15:39.538Z,77.72
2022-12-02T17:18:08.159Z,77.26
2022-12-02T17:20:36.502Z,77.86
2022-12-02T17:23:04.857Z,77.87
2022-12-02T17:25:33.209Z,77.40
2022-12-02T17:28:01.535Z,77.87
2022-12-02T17:30:29.859Z,77.83
2022-12-02T17:32:58.213Z,78.19
2022-12-02T17:35:26.795Z,78.34
2022-12-02T17:37:55.171Z,79.94
2022-12-02T17:40:23.485Z,79.54
2022-12-02T17:42:51.798Z,79.03
2022-12-02T17:45:20.122Z,78.93
2022-12-02T17:47:48.457Z,79.88
2022-12-02T17:50:17.911Z,79.26
2022-12-02T17:52:46.435Z,78.77
2022-12-02T17:55:15.519Z,78.60
2022-12-02T17:57:44.075Z,79.07
2022-12-02T18:00:13.769Z,79.64
2022-12-02T18:02:42.305Z,79.13
2022-12-02T18:05:10.748Z,78.32
2022-12-02T18:07:39.107Z,78.71
2022-12-02T18:10:07.995Z,79.39
2022-12-02T18:12:36.355Z,80.33
2022-12-02T18:15:05.303Z,80.09
2022-12-02T18:17:33.622Z,80.28
2022-12-02T18:20:02.122Z,80.67
2022-12-02T18:22:30.441Z,81.47
2022-12-02T18:24:59.540Z,81.25
2022-12-02T18:27:28.637Z,81.43
2022-12-02T18:29:57.104Z,82.00
2022-12-02T18:32:25.666Z,82.49
2022-12-02T18:34:54.421Z,81.81
2022-12-02T18:37:23.466Z,81.76
2022-12-02T18:39:51.827Z,81.36
2022-12-02T18:42:20.163Z,81.51
2022-12-02T18:44:48.975Z,81.63
2022-12-02T18:47:17.295Z,81.46
2022-12-02T18:49:45.705Z,82.10
2022-12-02T18:52:14.492Z,81.17
2022-12-02T18:54:42.821Z,80.62
2022-12-02T18:57:11.196Z,82.67
2022-12-02T18:59:39.539Z,82.26
2022-12-02T19:02:07.986Z,82.40
2022-12-02T19:04:36.406Z,83.01
2022-12-02T19:07:04.766Z,82.60
2022-12-02T19:09:33.086Z,82.30
2022-12-02T19:12:01.410Z,82.39
2022-12-02T19:14:29.746Z,82.50
2022-12-02T19:16:58.079Z,82.57
2022-12-02T19:19:26.422Z,83.19
2022-12-02T19:21:54.735Z,83.75
2022-12-02T19:24:23.081Z,83.44
2022-12-02T19:26:51.394Z,83.97
2022-12-02T19:29:19.717Z,84.22
2022-12-02T19:31:48.085Z,84.39
2022-12-02T19:34:16.574Z,83.81
2022-12-02T19:36:47.319Z,83.52
2022-12-02T19:39:17.034Z,84.00
2022-12-02T19:41:45.447Z,84.55
2022-12-02T19:44:13.840Z,85.03
2022-12-02T19:46:42.327Z,85.28
2022-12-02T19:49:10.748Z,85.51
2022-12-02T19:51:39.141Z,86.52
2022-12-02T19:54:07.427Z,86.77
2022-12-02T19:56:35.740Z,86.35
2022-12-02T19:59:04.154Z,86.20
2022-12-02T20:01:38.521Z,86.38
2022-12-02T20:04:39.015Z,86.29
2022-12-02T20:06:56.193Z,85.89
2022-12-02T20:09:27.090Z,85.44
2022-12-02T20:11:55.493Z,85.85
2022-12-02T20:14:23.934Z,86.26
2022-12-02T20:16:52.268Z,86.02
2022-12-02T20:19:20.708Z,85.39
2022-12-02T20:21:49.034Z,84.66
2022-12-02T20:24:17.410Z,84.87
2022-12-02T20:26:46.034Z,85.22
2022-12-02T20:29:14.362Z,85.74
2022-12-02T20:31:42.894Z,86.10
2022-12-02T20:34:11.318Z,86.58
2022-12-02T20:36:39.719Z,87.07
2022-12-02T20:39:08.155Z,86.70
2022-12-02T20:41:36.587Z,87.40
2022-12-02T20:44:04.940Z,86.98
2022-12-02T20:46:33.706Z,87.27
2022-12-02T20:49:02.048Z,87.22
2022-12-02T20:51:30.415Z,88.49
2022-12-02T20:53:58.880Z,88.42
2022-12-02T20:56:27.192Z,88.99
2022-12-02T20:58:55.504Z,89.00
2022-12-02T21:01:23.866Z,88.87
2022-12-02T21:03:52.282Z,89.82
2022-12-02T21:06:20.587Z,90.07
2022-12-02T21:08:49.001Z,89.45
2022-12-02T21:11:17.395Z,89.96
2022-12-02T21:13:46.703Z,89.79
2022-12-02T21:16:15.542Z,90.40
2022-12-02T21:18:44.065Z,89.66
2022-12-02T21:21:12.520Z,89.96
2022-12-02T21:23:40.884Z,90.47
2022-12-02T21:26:09.261Z,90.45
2022-12-02T21:28:37.582Z,91.42
2022-12-02T21:31:06.081Z,91.05
2022-12-02T21:33:34.409Z,91.22
2022-12-02T21:36:02.742Z,90.60
2022-12-02T21:38:31.818Z,90.40
2022-12-02T21:41:00.173Z,91.27
2022-12-02T21:43:28.519Z,90.90
2022-12-02T21:45:57.429Z,90.27
2022-12-02T21:48:25.894Z,90.56
2022-12-02T21:50:57.296Z,90.84
2022-12-02T21:53:25.691Z,91.08
2022-12-02T21:55:53.995Z,91.61
2022-12-02T21:58:22.360Z,91.54
2022-12-02T22:01:10.543Z,91.87
2022-12-02T22:03:38.926Z,91.46
2022-12-02T22:06:07.442Z,91.82
2022-12-02T22:08:35.753Z,91.05
2022-12-02T22:11:04.058Z,91.27
2022-12-02T22:13:32.372Z,91.17
2022-12-02T22:16:00.763Z,91.42
2022-12-02T22:18:29.261Z,90.49
2022-12-02T22:20:57.563Z,88.64
2022-12-02T22:23:25.881Z,88.08
2022-12-02T22:25:54.372Z,89.38
2022-12-02T22:28:22.797Z,89.47
2022-12-02T22:30:51.175Z,89.93
2022-12-02T22:33:19.487Z,89.17
2022-12-02T22:35:47.853Z,89.53
2022-12-02T22:38:16.250Z,89.10
2022-12-02T22:40:44.607Z,89.22
2022-12-02T22:43:12.931Z,89.79
2022-12-02T22:45:41.342Z,89.79
2022-12-02T22:48:09.689Z,89.29
2022-12-02T22:50:38.053Z,90.12
2022-12-02T22:53:06.427Z,90.30
2022-12-02T22:55:35.071Z,91.33
2022-12-02T22:58:03.474Z,91.15
2022-12-02T23:00:31.806Z,91.09
2022-12-02T23:03:00.276Z,90.57
2022-12-02T23:05:28.667Z,90.52
2022-12-02T23:07:57.033Z,91.00
2022-12-02T23:10:25.466Z,90.98
2022-12-02T23:12:53.788Z,90.70
2022-12-02T23:15:38.689Z,90.26
2022-12-02T23:18:08.527Z,90.81
2022-12-02T23:20:37.270Z,91.08
2022-12-02T23:23:05.714Z,91.44
2022-12-02T23:25:35.457Z,91.10
2022-12-02T23:28:03.804Z,90.78
2022-12-02T23:30:32.271Z,91.39
2022-12-02T23:33:01.042Z,91.17
2022-12-02T23:35:30.003Z,91.07
2022-12-02T23:37:58.416Z,91.42
2022-12-02T23:40:26.831Z,91.44
2022-12-02T23:42:55.206Z,91.05
2022-12-02T23:45:23.542Z,92.99
2022-12-02T23:47:51.940Z,92.48
2022-12-02T23:50:20.527Z,91.88
2022-12-02T23:52:48.854Z,91.51
2022-12-02T23:55:17.394Z,92.59
2022-12-02T23:57:45.770Z,92.26
